Time;durP1;ratioP1;P1;durP2;ratioP2;P2;SDS_P1;SDS_P2;PMS_P1;PMS_P2;Temp;Humidity;BMP_temperature;BMP_pressure;BME280_temperature;BME280_humidity;BME280_pressure;Samples;Min_cycle;Max_cycle;Signal;HPM_P1;HPM_P2
2023/02/02 00:00:52;;;;;;;46.53;8.68;;;6.00;99.90;;;;;;5110424;27;20115;-64
2023/02/02 00:03:18;;;;;;;51.00;9.00;;;5.90;99.90;;;;;;5107813;28;20043;-63
2023/02/02 00:05:49;;;;;;;45.58;8.98;;;5.90;99.90;;;;;;5108047;28;20062;-64
2023/02/02 00:08:16;;;;;;;43.25;8.38;;;5.90;99.90;;;;;;5106816;28;20071;-63
2023/02/02 00:10:42;;;;;;;38.55;8.05;;;5.90;99.90;;;;;;5094150;28;20083;-64
2023/02/02 00:13:08;;;;;;;46.97;8.85;;;5.90;99.90;;;;;;5119106;27;20295;-63
2023/02/02 00:15:34;;;;;;;36.60;7.05;;;5.80;99.90;;;;;;5106783;28;20040;-63
2023/02/02 00:18:00;;;;;;;36.60;6.50;;;5.90;99.90;;;;;;5107808;28;20405;-64
2023/02/02 00:20:26;;;;;;;49.30;8.75;;;5.90;99.90;;;;;;5107663;28;20490;-63
2023/02/02 00:22:52;;;;;;;42.15;8.55;;;5.90;99.90;;;;;;5117469;27;20570;-63
2023/02/02 00:25:17;;;;;;;44.13;6.43;;;6.00;99.90;;;;;;5107730;28;20044;-63
2023/02/02 00:27:44;;;;;;;37.08;5.00;;;6.00;99.90;;;;;;5089466;28;20052;-63
2023/02/02 00:30:10;;;;;;;48.10;7.10;;;6.10;99.90;;;;;;5107636;28;20402;-63
2023/02/02 00:32:36;;;;;;;38.45;6.15;;;6.00;99.90;;;;;;5106557;27;20455;-63
2023/02/02 00:35:01;;;;;;;36.75;6.15;;;6.00;99.90;;;;;;5107564;28;20059;-63
2023/02/02 00:37:27;;;;;;;28.48;4.32;;;6.00;99.90;;;;;;5107831;28;20043;-64
2023/02/02 00:39:53;;;;;;;39.10;5.53;;;5.90;99.90;;;;;;5108121;28;20039;-63
2023/02/02 00:42:19;;;;;;;34.72;6.03;;;5.80;99.90;;;;;;5106139;28;20087;-63
2023/02/02 00:47:28;;;;;;;34.10;4.65;;;5.50;99.90;;;;;;5108103;28;20048;-64
2023/02/02 00:49:54;;;;;;;43.20;4.63;;;5.50;99.90;;;;;;5091240;28;20399;-64
2023/02/02 00:52:20;;;;;;;45.67;7.72;;;5.50;99.90;;;;;;5108083;28;20112;-64
2023/02/02 00:54:46;;;;;;;33.22;5.38;;;5.40;99.90;;;;;;5119973;27;20043;-64
2023/02/02 00:57:13;;;;;;;46.58;5.47;;;5.40;99.90;;;;;;5108064;28;20435;-63
2023/02/02 00:59:39;;;;;;;32.17;5.65;;;5.40;99.90;;;;;;5107253;28;20095;-63
2023/02/02 01:02:05;;;;;;;41.33;7.00;;;5.40;99.90;;;;;;5103380;28;20119;-64
2023/02/02 01:04:31;;;;;;;37.85;5.65;;;5.30;99.90;;;;;;5108157;27;20130;-64
2023/02/02 01:06:57;;;;;;;17.92;3.22;;;5.20;99.90;;;;;;5107328;28;20043;-64
2023/02/02 01:09:23;;;;;;;39.65;6.72;;;5.20;99.90;;;;;;5107579;28;20737;-63
2023/02/02 01:11:49;;;;;;;30.92;4.03;;;5.10;99.90;;;;;;5107047;28;20052;-64
2023/02/02 01:14:14;;;;;;;36.72;4.88;;;5.10;99.90;;;;;;5107395;28;20051;-63
2023/02/02 01:16:40;;;;;;;46.25;6.90;;;5.00;99.90;;;;;;5118181;27;20911;-63
2023/02/02 01:19:06;;;;;;;42.33;5.43;;;5.00;99.90;;;;;;5107162;28;20524;-64
2023/02/02 01:21:32;;;;;;;38.20;5.45;;;5.00;99.90;;;;;;5106888;28;20043;-63
2023/02/02 01:23:58;;;;;;;45.20;6.05;;;5.00;99.90;;;;;;5117299;28;20502;-64
2023/02/02 01:26:26;;;;;;;32.28;4.90;;;5.00;99.90;;;;;;5111922;27;20401;-64
2023/02/02 01:28:52;;;;;;;29.58;3.63;;;5.00;99.90;;;;;;5107867;28;20100;-63
2023/02/02 01:31:18;;;;;;;40.38;5.45;;;4.90;99.90;;;;;;5108009;28;20398;-64
2023/02/02 01:33:46;;;;;;;41.90;6.80;;;4.90;99.90;;;;;;5113253;28;20042;-64
2023/02/02 01:36:18;;;;;;;25.10;3.58;;;4.90;99.90;;;;;;5113730;27;20051;-64
2023/02/02 01:38:46;;;;;;;40.28;6.07;;;4.90;99.90;;;;;;5104235;28;20821;-63
2023/02/02 01:41:18;;;;;;;32.75;4.90;;;4.90;99.90;;;;;;5112925;28;20055;-64
2023/02/02 01:43:43;;;;;;;40.60;4.75;;;4.80;99.90;;;;;;5108493;28;20489;-63
2023/02/02 01:46:21;;;;;;;49.88;7.47;;;4.80;99.90;;;;;;5107884;28;20048;-63
2023/02/02 01:49:05;;;;;;;46.13;6.10;;;4.80;99.90;;;;;;5110002;28;20115;-64
2023/02/02 01:51:40;;;;;;;42.05;5.63;;;4.80;99.90;;;;;;5113483;27;20106;-63
2023/02/02 01:54:09;;;;;;;44.45;5.40;;;4.80;99.90;;;;;;5100505;27;20493;-64
2023/02/02 01:56:47;;;;;;;51.70;5.78;;;4.80;99.90;;;;;;5109588;28;20116;-63
2023/02/02 01:59:16;;;;;;;52.72;7.07;;;4.80;99.90;;;;;;5109111;28;20537;-63
2023/02/02 02:01:45;;;;;;;40.30;6.53;;;4.80;99.90;;;;;;5142066;27;20074;-63
2023/02/02 02:04:11;;;;;;;51.97;7.10;;;4.70;99.90;;;;;;5117258;27;20512;-63
2023/02/02 02:06:37;;;;;;;50.72;6.68;;;4.80;99.90;;;;;;5109418;28;20055;-63
2023/02/02 02:09:05;;;;;;;52.80;6.47;;;4.70;99.90;;;;;;5142053;27;20477;-63
2023/02/02 02:11:33;;;;;;;43.67;6.32;;;4.70;99.90;;;;;;5108746;28;20051;-64
2023/02/02 02:16:57;;;;;;;51.55;6.82;;;4.70;99.90;;;;;;5108831;28;20383;-63
2023/02/02 02:26:32;;;;;;;39.90;6.32;;;4.70;99.90;;;;;;5110430;28;20047;-64
2023/02/02 02:28:38;;;;;;;47.88;6.55;;;4.70;99.90;;;;;;5112059;27;20378;-63
2023/02/02 02:31:07;;;;;;;46.25;6.10;;;4.60;99.90;;;;;;5109423;28;20051;-63
2023/02/02 02:33:56;;;;;;;62.00;6.72;;;4.70;99.90;;;;;;5109978;27;20497;-63
2023/02/02 02:36:37;;;;;;;61.78;7.65;;;4.60;99.90;;;;;;5109356;27;20090;-63
2023/02/02 02:39:26;;;;;;;53.55;6.47;;;4.60;99.90;;;;;;5141342;27;20047;-64
2023/02/02 02:41:59;;;;;;;50.03;6.25;;;4.70;99.90;;;;;;5109054;27;20046;-64
2023/02/02 02:44:27;;;;;;;54.30;7.82;;;4.70;99.90;;;;;;5109616;28;20040;-64
2023/02/02 02:46:53;;;;;;;49.03;7.50;;;4.70;99.90;;;;;;5107024;28;20044;-64
2023/02/02 02:49:20;;;;;;;59.65;8.00;;;4.80;99.90;;;;;;5109679;27;20074;-63
2023/02/02 02:51:51;;;;;;;50.40;6.55;;;4.80;99.90;;;;;;5111384;27;20100;-63
2023/02/02 02:54:41;;;;;;;45.45;6.10;;;4.80;99.90;;;;;;5141954;27;20466;-63
2023/02/02 02:57:16;;;;;;;;;;;4.80;99.90;;;;;;5108657;28;20079;-63
2023/02/02 02:59:53;;;;;;;49.25;7.45;;;4.90;99.90;;;;;;5107246;28;20304;-64
2023/02/02 03:02:36;;;;;;;51.95;7.60;;;4.90;99.90;;;;;;5103804;27;20048;-63
2023/02/02 03:05:32;;;;;;;39.42;5.20;;;4.90;99.90;;;;;;5106532;28;20056;-63
2023/02/02 03:08:25;;;;;;;46.47;7.20;;;5.00;99.90;;;;;;5108814;28;20051;-64
2023/02/02 03:10:52;;;;;;;40.95;6.18;;;5.00;99.90;;;;;;5109375;28;20039;-64
2023/02/02 03:13:18;;;;;;;52.85;6.43;;;5.10;99.90;;;;;;5109602;27;20040;-64
2023/02/02 03:15:45;;;;;;;40.60;5.43;;;5.00;99.90;;;;;;5142044;27;20047;-64
2023/02/02 03:18:13;;;;;;;52.67;5.60;;;5.00;99.90;;;;;;5108284;28;20097;-64
2023/02/02 03:20:39;;;;;;;49.50;4.90;;;5.00;99.90;;;;;;5108899;28;20117;-64
2023/02/02 03:23:06;;;;;;;18.88;2.80;;;5.00;99.90;;;;;;5101469;27;20481;-64
2023/02/02 03:25:32;;;;;;;31.30;4.07;;;5.00;99.90;;;;;;5115446;27;20412;-64
2023/02/02 03:27:59;;;;;;;27.15;3.38;;;5.00;99.90;;;;;;5107520;28;20035;-64
2023/02/02 03:30:25;;;;;;;51.75;6.82;;;5.00;99.90;;;;;;5107202;28;20039;-63
2023/02/02 03:32:51;;;;;;;59.50;6.72;;;5.00;99.90;;;;;;5109501;27;20051;-64
2023/02/02 03:35:19;;;;;;;34.80;3.85;;;5.00;99.90;;;;;;5107516;27;20544;-64
2023/02/02 03:37:46;;;;;;;32.42;4.05;;;5.10;99.90;;;;;;5108200;28;20098;-64
2023/02/02 03:40:12;;;;;;;30.73;4.30;;;5.10;99.90;;;;;;5108117;28;20404;-64
2023/02/02 03:42:38;;;;;;;46.40;6.05;;;5.10;99.90;;;;;;5107119;28;20040;-64
2023/02/02 03:45:05;;;;;;;72.47;6.65;;;5.20;99.90;;;;;;5108517;27;20036;-64
2023/02/02 03:47:31;;;;;;;14.75;2.30;;;5.20;99.90;;;;;;5106390;28;20051;-64
2023/02/02 03:49:57;;;;;;;62.85;7.03;;;5.20;99.90;;;;;;5141923;27;20043;-64
2023/02/02 03:52:23;;;;;;;44.15;4.90;;;5.30;99.90;;;;;;5106675;28;20482;-64
2023/02/02 03:54:49;;;;;;;35.53;4.80;;;5.30;99.90;;;;;;5108318;27;20047;-64
2023/02/02 03:57:15;;;;;;;42.50;6.45;;;5.30;99.90;;;;;;5107270;28;20044;-63
2023/02/02 03:59:42;;;;;;;47.47;5.50;;;5.30;99.90;;;;;;5108065;28;20241;-64
2023/02/02 04:02:07;;;;;;;56.05;6.90;;;5.30;99.90;;;;;;5107851;28;20129;-64
2023/02/02 04:04:33;;;;;;;57.25;6.18;;;5.30;99.90;;;;;;5108880;27;20125;-64
2023/02/02 04:07:00;;;;;;;57.35;7.50;;;5.40;99.90;;;;;;5110277;27;20053;-63
2023/02/02 04:09:26;;;;;;;42.65;5.00;;;5.40;99.90;;;;;;5100699;27;20464;-64
2023/02/02 04:11:52;;;;;;;48.50;6.90;;;5.40;99.90;;;;;;5131842;27;20382;-64
2023/02/02 04:14:19;;;;;;;49.55;6.55;;;5.30;99.90;;;;;;5106705;28;20039;-63
2023/02/02 04:16:45;;;;;;;57.72;7.75;;;5.40;99.90;;;;;;5115206;27;20040;-63
2023/02/02 04:19:14;;;;;;;56.20;6.68;;;5.40;99.90;;;;;;5107505;27;20058;-63
2023/02/02 04:21:40;;;;;;;59.47;7.50;;;5.40;99.90;;;;;;5104784;28;20448;-64
2023/02/02 04:24:14;;;;;;;45.35;5.65;;;5.40;99.90;;;;;;5108282;28;20050;-64
2023/02/02 04:26:41;;;;;;;51.78;5.85;;;5.50;99.90;;;;;;5105082;27;20386;-64
2023/02/02 04:29:07;;;;;;;31.75;3.97;;;5.50;99.90;;;;;;5110743;27;20039;-64
2023/02/02 04:31:33;;;;;;;39.03;4.63;;;5.60;99.90;;;;;;5106247;27;20709;-64
2023/02/02 04:33:59;;;;;;;48.20;6.72;;;5.70;99.90;;;;;;5107413;28;20086;-63
2023/02/02 04:36:25;;;;;;;55.88;7.22;;;5.70;99.90;;;;;;5106512;28;20571;-64
2023/02/02 04:38:54;;;;;;;25.10;3.65;;;5.60;99.90;;;;;;5106470;28;20040;-64
2023/02/02 04:41:23;;;;;;;41.33;5.07;;;5.70;99.90;;;;;;5111534;27;20046;-64
2023/02/02 04:43:48;;;;;;;46.88;6.30;;;5.70;99.90;;;;;;5106027;28;20549;-64
2023/02/02 04:46:14;;;;;;;25.10;3.65;;;5.70;99.90;;;;;;5107255;28;20130;-64
2023/02/02 04:48:41;;;;;;;41.00;4.30;;;5.70;99.90;;;;;;5105721;28;20047;-64
2023/02/02 04:51:10;;;;;;;53.70;6.85;;;5.70;99.90;;;;;;5107946;27;20039;-64
2023/02/02 04:53:35;;;;;;;31.92;4.20;;;5.70;99.90;;;;;;5110161;27;20047;-64
2023/02/02 04:56:14;;;;;;;31.75;3.75;;;5.80;99.90;;;;;;5115549;27;20129;-63
2023/02/02 04:58:41;;;;;;;20.48;3.13;;;5.80;99.90;;;;;;5106912;28;20044;-64
2023/02/02 05:01:16;;;;;;;39.30;4.68;;;5.80;99.90;;;;;;5104391;28;20413;-64
2023/02/02 05:03:43;;;;;;;23.40;2.25;;;5.80;99.90;;;;;;5107913;27;20390;-64
2023/02/02 05:06:08;;;;;;;40.10;4.63;;;5.80;99.90;;;;;;5105773;28;20048;-63
2023/02/02 05:08:35;;;;;;;32.75;4.50;;;5.80;99.90;;;;;;5106173;28;20046;-63
2023/02/02 05:11:12;;;;;;;26.27;4.53;;;5.80;99.90;;;;;;5094532;28;20092;-63
2023/02/02 05:13:39;;;;;;;25.13;4.15;;;5.70;99.90;;;;;;5136355;27;20086;-63
2023/02/02 05:16:05;;;;;;;22.67;3.78;;;5.70;99.90;;;;;;5106761;28;20081;-63
2023/02/02 05:18:31;;;;;;;26.45;4.28;;;5.60;99.90;;;;;;5103688;28;20078;-64
2023/02/02 05:21:03;;;;;;;23.50;3.92;;;5.70;99.90;;;;;;5107229;28;20081;-64
2023/02/02 05:23:29;;;;;;;22.55;4.63;;;5.70;99.90;;;;;;5106569;28;20117;-64
2023/02/02 05:25:55;;;;;;;16.63;3.42;;;5.60;99.90;;;;;;5106348;28;20378;-64
2023/02/02 05:28:22;;;;;;;25.35;3.50;;;5.60;99.90;;;;;;5106608;28;20036;-63
2023/02/02 05:30:48;;;;;;;22.30;3.72;;;5.60;99.90;;;;;;5138324;27;20052;-64
2023/02/02 05:33:15;;;;;;;14.50;2.30;;;5.60;99.90;;;;;;5106948;28;20047;-64
2023/02/02 05:35:40;;;;;;;14.13;2.70;;;5.60;99.90;;;;;;5112793;28;20054;-63
2023/02/02 05:38:07;;;;;;;11.10;2.13;;;5.60;99.90;;;;;;5106321;28;20040;-64
2023/02/02 05:40:33;;;;;;;10.77;1.98;;;5.60;99.90;;;;;;5105352;28;20058;-63
2023/02/02 05:42:59;;;;;;;18.23;2.70;;;5.60;99.90;;;;;;5104965;28;20048;-63
2023/02/02 05:45:26;;;;;;;15.48;2.55;;;5.60;99.90;;;;;;5111319;28;20198;-63
2023/02/02 05:47:55;;;;;;;12.43;1.77;;;5.60;99.90;;;;;;5104835;28;20118;-63
2023/02/02 05:50:21;;;;;;;18.83;2.33;;;5.60;99.90;;;;;;5092946;28;20043;-64
2023/02/02 05:52:48;;;;;;;13.88;1.75;;;5.50;99.90;;;;;;5086444;28;20055;-63
2023/02/02 05:55:15;;;;;;;13.02;2.05;;;5.50;99.90;;;;;;5107719;28;20039;-64
2023/02/02 05:57:41;;;;;;;15.85;2.22;;;5.50;99.90;;;;;;5104766;28;20386;-64
2023/02/02 06:00:07;;;;;;;15.98;2.35;;;5.40;99.90;;;;;;5105190;28;20044;-63
2023/02/02 06:02:33;;;;;;;23.13;3.42;;;5.40;99.90;;;;;;5105858;28;20491;-64
2023/02/02 06:04:59;;;;;;;17.15;2.45;;;5.30;99.90;;;;;;5105468;28;20496;-64
2023/02/02 06:07:24;;;;;;;23.95;2.40;;;5.30;99.90;;;;;;5088188;28;20040;-64
2023/02/02 06:09:50;;;;;;;18.13;2.47;;;5.30;99.90;;;;;;5096209;28;20427;-64
2023/02/02 06:12:17;;;;;;;12.55;1.98;;;5.30;99.90;;;;;;5101464;28;20431;-64
2023/02/02 06:14:44;;;;;;;18.05;2.03;;;5.30;99.90;;;;;;5103327;28;20047;-64
2023/02/02 06:17:09;;;;;;;18.90;2.97;;;5.30;99.90;;;;;;5109294;28;20117;-64
2023/02/02 06:19:35;;;;;;;17.33;2.75;;;5.30;99.90;;;;;;5104842;28;20505;-64
2023/02/02 06:22:01;;;;;;;15.02;1.67;;;5.30;99.90;;;;;;5139110;27;20445;-64
2023/02/02 06:24:27;;;;;;;17.90;2.10;;;5.30;99.90;;;;;;5106033;28;20039;-64
2023/02/02 06:26:53;;;;;;;15.80;1.45;;;5.20;99.90;;;;;;5105792;28;20241;-64
2023/02/02 06:29:18;;;;;;;14.63;1.63;;;5.20;99.90;;;;;;5107620;28;20040;-64
2023/02/02 06:31:44;;;;;;;12.25;2.00;;;5.20;99.90;;;;;;5107904;28;20043;-64
2023/02/02 06:34:13;;;;;;;16.50;2.53;;;5.20;99.90;;;;;;5110463;28;20039;-64
2023/02/02 06:36:41;;;;;;;21.60;2.80;;;5.20;99.90;;;;;;5139153;27;20056;-64
2023/02/02 06:39:07;;;;;;;20.52;3.28;;;5.20;99.90;;;;;;5109437;28;20119;-63
2023/02/02 06:41:33;;;;;;;15.68;1.60;;;5.10;99.90;;;;;;5108257;28;20189;-64
2023/02/02 06:44:00;;;;;;;13.05;2.10;;;5.10;99.90;;;;;;5108387;28;20066;-64
2023/02/02 06:46:26;;;;;;;13.10;1.67;;;5.10;99.90;;;;;;5109916;28;20051;-64
2023/02/02 06:48:52;;;;;;;10.85;1.77;;;5.10;99.90;;;;;;5117023;27;20481;-64
2023/02/02 06:51:18;;;;;;;11.23;2.15;;;5.10;99.90;;;;;;5110037;28;20050;-64
2023/02/02 06:53:48;;;;;;;13.07;2.13;;;5.10;99.90;;;;;;5108157;28;20059;-63
2023/02/02 06:56:14;;;;;;;15.73;1.90;;;5.00;99.90;;;;;;5108508;28;20059;-63
2023/02/02 06:58:40;;;;;;;14.65;2.05;;;5.00;99.90;;;;;;5116394;27;20047;-63
2023/02/02 07:01:11;;;;;;;11.50;2.15;;;5.00;99.90;;;;;;5109013;27;20055;-64
2023/02/02 07:03:37;;;;;;;13.15;2.22;;;5.00;99.90;;;;;;5109419;28;20292;-63
2023/02/02 07:06:15;;;;;;;11.23;1.92;;;5.00;99.90;;;;;;5099094;28;20051;-63
2023/02/02 07:08:42;;;;;;;14.07;2.22;;;5.10;99.90;;;;;;5099211;27;20501;-64
2023/02/02 07:11:08;;;;;;;12.70;2.33;;;5.10;99.90;;;;;;5104006;28;20035;-64
2023/02/02 07:13:34;;;;;;;14.35;3.08;;;5.00;99.90;;;;;;5103210;27;20044;-64
2023/02/02 07:16:01;;;;;;;17.02;2.10;;;5.10;99.90;;;;;;5102505;27;20516;-63
2023/02/02 07:18:27;;;;;;;11.30;1.90;;;5.10;99.90;;;;;;5087784;28;20131;-66
2023/02/02 07:20:52;;;;;;;8.85;1.35;;;5.10;99.90;;;;;;5088193;28;20118;-66
2023/02/02 07:23:18;;;;;;;15.55;1.80;;;5.10;99.90;;;;;;5091338;27;20519;-65
2023/02/02 07:25:44;;;;;;;15.40;1.88;;;5.10;99.90;;;;;;5090086;28;20075;-66
2023/02/02 07:28:10;;;;;;;11.65;1.83;;;5.00;99.90;;;;;;5119819;27;20066;-66
2023/02/02 07:30:36;;;;;;;12.35;1.52;;;5.00;99.90;;;;;;5088226;28;20044;-66
2023/02/02 07:33:02;;;;;;;10.93;1.92;;;5.00;99.90;;;;;;5120990;27;20093;-66
2023/02/02 07:35:28;;;;;;;13.35;1.80;;;5.00;99.90;;;;;;5105256;27;20043;-66
2023/02/02 07:37:54;;;;;;;9.27;1.77;;;5.00;99.90;;;;;;5089033;28;20399;-66
2023/02/02 07:40:20;;;;;;;14.23;2.33;;;5.00;99.90;;;;;;5067385;28;20048;-64
2023/02/02 07:42:47;;;;;;;16.85;2.25;;;5.00;99.90;;;;;;5087887;28;20044;-63
2023/02/02 07:45:13;;;;;;;14.32;2.15;;;5.10;99.90;;;;;;5091650;27;20065;-63
2023/02/02 07:47:40;;;;;;;13.82;1.83;;;5.10;99.90;;;;;;5088370;28;20044;-63
2023/02/02 07:50:06;;;;;;;8.63;2.22;;;5.10;99.90;;;;;;5083100;28;20105;-64
2023/02/02 07:52:31;;;;;;;21.02;3.33;;;5.10;99.90;;;;;;5098358;28;20542;-64
2023/02/02 07:54:57;;;;;;;19.83;2.63;;;5.10;99.90;;;;;;5107580;27;20114;-64
2023/02/02 07:57:23;;;;;;;13.73;2.55;;;5.20;99.90;;;;;;5092963;28;20059;-63
2023/02/02 07:59:49;;;;;;;14.20;2.33;;;5.20;99.90;;;;;;5093404;28;20058;-63
2023/02/02 08:02:15;;;;;;;17.35;3.20;;;5.30;99.90;;;;;;5093043;28;20119;-63
2023/02/02 08:04:41;;;;;;;11.18;1.73;;;5.30;99.90;;;;;;5120390;27;20040;-64
2023/02/02 08:07:07;;;;;;;19.38;2.78;;;5.30;99.90;;;;;;5097054;28;20036;-64
2023/02/02 08:09:33;;;;;;;22.85;3.25;;;5.40;99.90;;;;;;5096499;27;20036;-64
2023/02/02 08:12:01;;;;;;;16.42;2.00;;;5.40;99.90;;;;;;5106926;27;20059;-64
2023/02/02 08:14:28;;;;;;;17.20;3.10;;;5.40;99.90;;;;;;5107020;27;20486;-64
2023/02/02 08:16:54;;;;;;;15.35;2.83;;;5.40;99.90;;;;;;5107519;27;20501;-64
2023/02/02 08:19:20;;;;;;;16.05;2.50;;;5.50;99.90;;;;;;5105980;28;20118;-64
2023/02/02 08:21:46;;;;;;;17.70;2.22;;;5.60;99.90;;;;;;5090040;28;20177;-64
2023/02/02 08:24:11;;;;;;;17.67;3.03;;;5.60;99.90;;;;;;5105598;28;20130;-64
2023/02/02 08:26:37;;;;;;;20.88;4.03;;;5.60;99.90;;;;;;5109073;27;20028;-64
2023/02/02 08:29:06;;;;;;;20.92;2.67;;;5.70;99.90;;;;;;5106437;28;20465;-64
2023/02/02 08:31:34;;;;;;;15.38;2.83;;;5.80;99.90;;;;;;5137544;27;20048;-63
2023/02/02 08:34:00;;;;;;;19.10;2.80;;;5.80;99.90;;;;;;5105386;27;20405;-63
2023/02/02 08:36:28;;;;;;;19.88;2.22;;;5.80;99.90;;;;;;5099940;28;20051;-63
2023/02/02 08:38:54;;;;;;;15.75;3.20;;;5.80;99.90;;;;;;5105696;28;20387;-63
2023/02/02 08:41:22;;;;;;;15.38;2.53;;;5.80;99.90;;;;;;5103834;28;20035;-63
2023/02/02 08:43:49;;;;;;;17.65;2.15;;;5.90;99.90;;;;;;5108483;27;20036;-64
2023/02/02 08:46:16;;;;;;;17.50;3.58;;;5.80;99.90;;;;;;5090991;28;20194;-63
2023/02/02 08:48:43;;;;;;;16.10;2.38;;;5.90;99.90;;;;;;5093560;28;20521;-63
2023/02/02 08:51:13;;;;;;;10.93;1.95;;;5.90;99.90;;;;;;5093585;28;20117;-63
2023/02/02 08:53:40;;;;;;;15.88;2.72;;;5.90;99.90;;;;;;5092298;27;20051;-63
2023/02/02 08:56:12;;;;;;;15.05;1.77;;;5.90;99.90;;;;;;5084857;28;20132;-64
2023/02/02 08:58:38;;;;;;;16.10;2.25;;;5.90;99.90;;;;;;5089488;28;20090;-63
2023/02/02 09:01:11;;;;;;;13.13;2.22;;;5.90;99.90;;;;;;5097975;28;20047;-63
2023/02/02 09:03:39;;;;;;;10.85;2.50;;;6.00;99.90;;;;;;5090853;27;20125;-63
2023/02/02 09:06:10;;;;;;;18.50;2.28;;;6.00;99.90;;;;;;5100134;28;20506;-63
2023/02/02 09:08:36;;;;;;;10.43;2.55;;;6.00;99.90;;;;;;5092710;28;20062;-63
2023/02/02 09:11:15;;;;;;;14.38;2.55;;;6.00;99.90;;;;;;5090272;28;20114;-64
2023/02/02 09:13:41;;;;;;;15.15;2.30;;;6.10;99.90;;;;;;5108651;28;20101;-64
2023/02/02 09:16:12;;;;;;;21.23;2.40;;;6.10;99.90;;;;;;5105238;28;20047;-63
2023/02/02 09:18:40;;;;;;;13.35;1.90;;;6.10;99.90;;;;;;5105705;28;20058;-63
2023/02/02 09:21:08;;;;;;;13.30;2.17;;;6.20;99.90;;;;;;5087515;28;20044;-64
2023/02/02 09:23:35;;;;;;;18.08;2.85;;;6.20;99.90;;;;;;5106135;28;20043;-63
2023/02/02 09:26:29;;;;;;;14.30;2.53;;;6.30;99.90;;;;;;5097142;28;20036;-64
2023/02/02 09:29:04;;;;;;;11.95;2.13;;;6.30;99.90;;;;;;5105231;28;20043;-63
2023/02/02 09:31:34;;;;;;;19.38;2.85;;;6.30;99.90;;;;;;5106697;28;20047;-64
2023/02/02 09:34:01;;;;;;;;;;;6.40;99.90;;;;;;5106628;28;20044;-64
2023/02/02 09:36:27;;;;;;;27.80;3.67;;;6.40;99.90;;;;;;5118718;28;19936;-64
2023/02/02 09:38:53;;;;;;;21.38;2.80;;;6.40;99.90;;;;;;5105039;28;20156;-64
2023/02/02 09:41:37;;;;;;;20.02;2.75;;;6.50;99.90;;;;;;5103277;28;20122;-64
2023/02/02 09:44:33;;;;;;;16.73;2.42;;;6.50;99.90;;;;;;5100198;28;20032;-64
2023/02/02 09:47:10;;;;;;;18.80;2.40;;;6.60;99.90;;;;;;5102473;28;20043;-64
2023/02/02 09:49:57;;;;;;;15.85;2.70;;;6.60;99.90;;;;;;5101423;28;20040;-63
2023/02/02 09:52:32;;;;;;;17.60;2.55;;;6.60;99.90;;;;;;5101777;28;20079;-64
2023/02/02 09:55:33;;;;;;;14.98;2.20;;;6.70;99.90;;;;;;5096931;28;20502;-63
2023/02/02 09:58:18;;;;;;;16.00;1.58;;;6.70;99.90;;;;;;5101008;28;20066;-64
2023/02/02 10:01:07;;;;;;;15.25;2.50;;;6.70;99.90;;;;;;5102639;28;20085;-63
2023/02/02 10:03:35;;;;;;;12.40;1.90;;;6.80;99.90;;;;;;5084411;28;20058;-64
2023/02/02 10:06:35;;;;;;;15.15;2.38;;;6.80;99.90;;;;;;5105110;27;20028;-63
2023/02/02 10:09:40;;;;;;;11.45;1.77;;;6.80;99.90;;;;;;5101038;27;20075;-63
2023/02/02 10:12:27;;;;;;;12.13;1.90;;;6.90;99.90;;;;;;5111642;27;20401;-63
2023/02/02 10:15:05;;;;;;;8.15;1.63;;;6.90;99.90;;;;;;5133910;27;20083;-64
2023/02/02 10:17:43;;;;;;;9.93;1.70;;;6.90;99.90;;;;;;5109220;28;20083;-63
2023/02/02 10:20:25;;;;;;;12.57;1.95;;;6.90;99.90;;;;;;5108488;27;20100;-64
2023/02/02 10:22:53;;;;;;;10.18;2.03;;;7.00;99.90;;;;;;5107688;28;20039;-63
2023/02/02 10:25:22;;;;;;;10.88;0.98;;;7.00;99.90;;;;;;5112279;27;20104;-64
2023/02/02 10:28:06;;;;;;;7.18;1.67;;;7.00;99.90;;;;;;5118070;27;20035;-64
2023/02/02 10:30:47;;;;;;;1.27;0.57;;;7.00;99.90;;;;;;5111124;27;20079;-64
2023/02/02 10:33:26;;;;;;;11.70;1.98;;;7.00;99.90;;;;;;5121356;27;20392;-64
2023/02/02 10:36:04;;;;;;;11.00;1.98;;;7.10;99.90;;;;;;5110815;27;20070;-63
2023/02/02 10:38:55;;;;;;;7.22;1.35;;;7.10;99.90;;;;;;5094780;27;20054;-64
2023/02/02 10:42:02;;;;;;;8.68;1.67;;;7.20;99.90;;;;;;5105259;27;20598;-64
2023/02/02 10:44:43;;;;;;;8.10;1.27;;;7.20;99.90;;;;;;5110543;27;20055;-64
2023/02/02 10:47:15;;;;;;;10.52;1.27;;;7.20;99.90;;;;;;5110617;27;20054;-64
2023/02/02 10:49:41;;;;;;;5.72;0.90;;;7.20;99.90;;;;;;5106601;27;20035;-64
2023/02/02 10:52:10;;;;;;;10.05;1.45;;;7.30;99.90;;;;;;5100323;27;20093;-64
2023/02/02 10:55:13;;;;;;;9.15;1.63;;;7.30;99.90;;;;;;5098678;28;20094;-64
2023/02/02 10:57:51;;;;;;;11.25;1.55;;;7.30;99.90;;;;;;5101540;28;20084;-64
2023/02/02 11:00:23;;;;;;;7.18;1.40;;;7.20;99.90;;;;;;5103580;28;20068;-64
2023/02/02 11:02:50;;;;;;;8.68;2.03;;;7.30;99.90;;;;;;5105285;28;20507;-64
2023/02/02 11:08:19;;;;;;;7.15;1.38;;;7.30;99.90;;;;;;5104414;28;20404;-64
2023/02/02 11:10:50;;;;;;;11.00;1.55;;;7.30;99.90;;;;;;5123624;27;20057;-64
2023/02/02 11:13:31;;;;;;;10.35;1.70;;;7.40;99.90;;;;;;5104605;28;20040;-63
2023/02/02 11:16:18;;;;;;;6.72;1.33;;;7.30;99.90;;;;;;5090415;28;20044;-64
2023/02/02 11:18:44;;;;;;;12.98;1.77;;;7.40;99.90;;;;;;5103246;27;20118;-64
2023/02/02 11:21:26;;;;;;;4.32;0.90;;;7.30;99.90;;;;;;5085961;28;20040;-64
2023/02/02 11:24:01;;;;;;;7.65;1.50;;;7.30;99.90;;;;;;5103147;27;20056;-63
2023/02/02 11:26:53;;;;;;;9.98;1.33;;;7.30;99.90;;;;;;5106737;28;20089;-63
2023/02/02 11:29:27;;;;;;;9.05;1.90;;;7.30;99.90;;;;;;5092228;27;20050;-64
2023/02/02 11:31:54;;;;;;;12.27;1.60;;;7.30;99.90;;;;;;5105358;28;20421;-64
2023/02/02 11:34:28;;;;;;;8.30;1.73;;;7.20;99.90;;;;;;5103994;28;20043;-64
2023/02/02 11:37:03;;;;;;;10.32;1.95;;;7.20;99.90;;;;;;5103523;27;20047;-64
2023/02/02 11:39:29;;;;;;;7.43;1.83;;;7.30;99.90;;;;;;5093420;28;20515;-64
2023/02/02 11:42:20;;;;;;;13.60;2.50;;;7.20;99.90;;;;;;5097379;28;20078;-64
2023/02/02 11:44:57;;;;;;;12.35;2.00;;;7.30;99.90;;;;;;5103799;27;20047;-64
2023/02/02 11:47:32;;;;;;;6.28;1.42;;;7.20;99.90;;;;;;5103423;27;20393;-64
2023/02/02 11:50:03;;;;;;;12.05;1.60;;;7.30;99.90;;;;;;5123562;27;20044;-64
2023/02/02 11:52:31;;;;;;;8.77;1.40;;;7.20;99.90;;;;;;5103911;27;20409;-64
2023/02/02 11:55:00;;;;;;;11.45;1.60;;;7.30;99.90;;;;;;5129684;27;20035;-65
2023/02/02 11:57:28;;;;;;;11.32;1.80;;;7.20;99.90;;;;;;5091297;28;20077;-66
2023/02/02 12:00:14;;;;;;;9.90;1.75;;;7.20;99.90;;;;;;5119831;27;20051;-66
2023/02/02 12:02:48;;;;;;;6.10;1.25;;;7.20;99.90;;;;;;5098676;27;20047;-66
2023/02/02 12:05:20;;;;;;;8.80;1.63;;;7.20;99.90;;;;;;5102740;28;21132;-66
2023/02/02 12:07:47;;;;;;;10.93;2.28;;;7.20;99.90;;;;;;5104271;28;20043;-66
2023/02/02 12:10:25;;;;;;;10.02;1.67;;;7.20;99.90;;;;;;5103981;28;20035;-65
2023/02/02 12:13:17;;;;;;;10.38;1.27;;;7.20;99.90;;;;;;5098070;28;20059;-66
2023/02/02 12:15:49;;;;;;;5.28;1.20;;;7.30;99.90;;;;;;5086649;28;20429;-66
2023/02/02 12:18:29;;;;;;;7.68;1.23;;;7.30;99.90;;;;;;5096271;28;20046;-66
2023/02/02 12:21:10;;;;;;;10.48;1.13;;;7.30;99.90;;;;;;5104693;28;20048;-66
2023/02/02 12:24:16;;;;;;;9.43;1.15;;;7.30;99.90;;;;;;5102700;28;20100;-66
2023/02/02 12:27:06;;;;;;;7.30;1.80;;;7.30;99.90;;;;;;5130318;27;20079;-66
2023/02/02 12:29:50;;;;;;;8.75;1.20;;;7.30;99.90;;;;;;5097044;27;20497;-65
2023/02/02 12:32:43;;;;;;;10.30;1.45;;;7.20;99.90;;;;;;5108605;27;20058;-66
2023/02/02 12:35:47;;;;;;;14.40;1.35;;;7.20;99.90;;;;;;5092832;28;20451;-66
2023/02/02 12:38:19;;;;;;;5.03;0.95;;;7.20;99.90;;;;;;5088097;27;20079;-66
2023/02/02 12:41:06;;;;;;;6.78;1.17;;;7.20;99.90;;;;;;5094902;27;20046;-66
2023/02/02 12:43:45;;;;;;;9.30;1.50;;;7.10;99.90;;;;;;5090184;28;20048;-66
2023/02/02 12:46:41;;;;;;;11.15;1.10;;;7.10;99.90;;;;;;5100642;27;20050;-65
2023/02/02 12:49:44;;;;;;;15.40;1.42;;;7.10;99.90;;;;;;5100314;27;20092;-66
2023/02/02 12:52:41;;;;;;;7.07;1.45;;;7.20;99.90;;;;;;5101289;27;20043;-65
2023/02/02 12:55:41;;;;;;;7.10;1.30;;;7.20;99.90;;;;;;5099404;27;20051;-65
2023/02/02 12:58:32;;;;;;;9.90;1.10;;;7.20;99.90;;;;;;5095926;28;20111;-65
2023/02/02 13:01:12;;;;;;;;;;;7.20;99.90;;;;;;5086961;28;20130;-66
2023/02/02 13:03:37;;;;;;;8.40;1.30;;;7.30;99.90;;;;;;5095009;28;19923;-66
2023/02/02 13:06:35;;;;;;;7.18;1.10;;;7.30;99.90;;;;;;5091131;28;20044;-65
2023/02/02 13:09:10;;;;;;;10.02;1.70;;;7.30;99.90;;;;;;5092580;28;20074;-66
2023/02/02 13:12:10;;;;;;;10.13;1.27;;;7.30;99.90;;;;;;5127734;27;20464;-66
2023/02/02 13:14:43;;;;;;;4.35;1.30;;;7.40;99.90;;;;;;5105690;28;20047;-66
2023/02/02 13:17:25;;;;;;;10.73;1.65;;;7.40;99.90;;;;;;5104218;28;20082;-66
2023/02/02 13:19:56;;;;;;;12.38;1.60;;;7.40;99.90;;;;;;5106518;27;20217;-66
2023/02/02 13:22:32;;;;;;;13.23;1.42;;;7.50;99.90;;;;;;5105200;28;20047;-66
2023/02/02 13:25:01;;;;;;;8.82;1.60;;;7.40;99.90;;;;;;5105055;28;20066;-66